createdAt,value
2023-03-01T00:00:02.341Z,62.96
2023-03-01T00:01:02.297Z,63.85
2023-03-01T00:02:02.370Z,54.57
2023-03-01T00:03:02.346Z,66.30
2023-03-01T00:04:02.288Z,52.12
2023-03-01T00:05:02.276Z,55.85
2023-03-01T00:06:02.218Z,66.27
2023-03-01T00:07:02.274Z,55.70
2023-03-01T00:08:02.225Z,64.49
2023-03-01T00:09:02.241Z,57.74
2023-03-01T00:10:02.229Z,56.71
2023-03-01T00:11:02.232Z,62.09
2023-03-01T00:12:02.236Z,62.10
2023-03-01T00:13:02.174Z,64.50
2023-03-01T00:14:02.170Z,63.78
2023-03-01T00:15:02.267Z,63.52
2023-03-01T00:16:02.204Z,57.05
2023-03-01T00:17:02.195Z,59.49
2023-03-01T00:18:02.195Z,58.84
2023-03-01T00:19:02.184Z,60.90
2023-03-01T00:20:02.161Z,61.21
2023-03-01T00:21:02.111Z,62.00
2023-03-01T00:22:02.177Z,60.64
2023-03-01T00:23:02.080Z,66.99
2023-03-01T00:24:02.055Z,67.31
2023-03-01T00:25:02.157Z,63.32
2023-03-01T00:26:02.048Z,60.92
2023-03-01T00:27:02.077Z,58.85
2023-03-01T00:28:02.000Z,56.63
2023-03-01T00:29:02.013Z,58.05
2023-03-01T00:30:02.007Z,58.54
2023-03-01T00:31:02.054Z,64.28
2023-03-01T00:32:02.052Z,60.98
2023-03-01T00:33:01.982Z,60.36
2023-03-01T00:34:02.002Z,58.45
2023-03-01T00:35:01.932Z,65.59
2023-03-01T00:36:01.961Z,59.21
2023-03-01T00:37:01.949Z,52.71
2023-03-01T00:38:01.937Z,55.33
2023-03-01T00:39:01.940Z,59.73
2023-03-01T00:40:01.949Z,64.17
2023-03-01T00:41:01.869Z,62.91
2023-03-01T00:42:01.893Z,60.72
2023-03-01T00:43:01.838Z,68.24
2023-03-01T00:44:01.895Z,61.77
2023-03-01T00:45:01.857Z,71.60
2023-03-01T00:46:01.939Z,58.80
2023-03-01T00:47:01.840Z,66.14
2023-03-01T00:48:01.803Z,59.56
2023-03-01T00:49:01.831Z,66.82
2023-03-01T00:50:01.925Z,67.24
2023-03-01T00:51:01.776Z,65.73
2023-03-01T00:52:01.775Z,62.84
2023-03-01T00:53:01.768Z,60.19
2023-03-01T00:54:01.893Z,63.16
2023-03-01T00:55:01.778Z,58.34
2023-03-01T00:56:01.735Z,58.46
2023-03-01T00:57:01.720Z,57.62
2023-03-01T00:58:01.664Z,57.68
2023-03-01T00:59:01.741Z,61.98
2023-03-01T01:00:01.772Z,52.50
2023-03-01T01:01:01.659Z,65.38
2023-03-01T01:02:01.656Z,64.52
2023-03-01T01:03:01.627Z,61.30
2023-03-01T01:04:01.658Z,67.09
2023-03-01T01:05:01.639Z,58.15
2023-03-01T01:06:01.646Z,62.15
2023-03-01T01:07:01.599Z,62.47
2023-03-01T01:08:01.599Z,60.42
2023-03-01T01:09:01.613Z,67.32
2023-03-01T01:10:01.574Z,59.81
2023-03-01T01:11:01.587Z,49.03
2023-03-01T01:12:01.559Z,58.30
2023-03-01T01:13:01.538Z,66.08
2023-03-01T01:14:01.541Z,61.82
2023-03-01T01:15:01.560Z,53.00
2023-03-01T01:16:01.585Z,61.31
2023-03-01T01:17:01.506Z,58.88
2023-03-01T01:18:01.490Z,63.82
2023-03-01T01:19:01.447Z,58.92
2023-03-01T01:20:01.488Z,58.45
2023-03-01T01:21:01.455Z,62.27
2023-03-01T01:22:01.430Z,57.91
2023-03-01T01:23:01.446Z,61.40
2023-03-01T01:24:01.429Z,60.74
2023-03-01T01:25:01.425Z,58.84
2023-03-01T01:26:01.396Z,61.88
2023-03-01T01:27:01.365Z,65.01
2023-03-01T01:28:01.427Z,54.53
2023-03-01T01:29:01.391Z,59.17
2023-03-01T01:30:02.355Z,53.89
2023-03-01T01:31:01.348Z,63.87
2023-03-01T01:32:01.440Z,60.99
2023-03-01T01:33:01.307Z,65.44
2023-03-01T01:34:01.350Z,57.81
2023-03-01T01:35:01.286Z,61.20
2023-03-01T01:36:01.342Z,62.36
2023-03-01T01:37:01.243Z,57.50
2023-03-01T01:38:02.284Z,66.09
2023-03-01T01:39:01.278Z,63.02
2023-03-01T01:40:01.276Z,65.15
2023-03-01T01:41:01.267Z,65.96
2023-03-01T01:42:01.231Z,56.27
2023-03-01T01:43:01.232Z,58.09
2023-03-01T01:44:01.199Z,53.36
2023-03-01T01:45:01.186Z,61.99
2023-03-01T01:46:01.200Z,65.30
2023-03-01T01:47:01.151Z,60.75
2023-03-01T01:48:01.139Z,52.49
2023-03-01T01:49:01.144Z,60.98
2023-03-01T01:50:01.167Z,64.88
2023-03-01T01:51:01.151Z,64.79
2023-03-01T01:52:01.106Z,67.84
2023-03-01T01:53:01.108Z,58.12
2023-03-01T01:54:01.072Z,67.08
2023-03-01T01:55:01.100Z,55.52
2023-03-01T01:56:01.099Z,65.51
2023-03-01T01:57:01.109Z,62.82
2023-03-01T01:58:01.039Z,51.75
2023-03-01T01:59:01.029Z,53.49
2023-03-01T02:00:01.035Z,53.77
2023-03-01T02:01:01.014Z,70.37
2023-03-01T02:02:01.024Z,56.91
2023-03-01T02:03:01.082Z,58.67
2023-03-01T02:04:01.007Z,60.05
2023-03-01T02:05:00.982Z,58.61
2023-03-01T02:06:00.944Z,58.39
2023-03-01T02:07:00.935Z,69.51
2023-03-01T02:08:00.972Z,60.07
2023-03-01T02:09:01.940Z,66.78
2023-03-01T02:10:00.954Z,64.00
2023-03-01T02:11:00.986Z,55.01
2023-03-01T02:12:00.939Z,62.00
2023-03-01T02:13:00.896Z,67.31
2023-03-01T02:14:00.888Z,60.00
2023-03-01T02:15:00.880Z,57.39
2023-03-01T02:16:00.896Z,65.10
2023-03-01T02:17:00.841Z,64.13
2023-03-01T02:18:00.801Z,65.34
2023-03-01T02:19:00.854Z,66.54
2023-03-01T02:20:00.798Z,63.21
2023-03-01T02:21:00.841Z,55.86
2023-03-01T02:22:00.805Z,52.29
2023-03-01T02:23:00.784Z,63.85
2023-03-01T02:24:00.769Z,49.61
2023-03-01T02:25:00.763Z,61.10
2023-03-01T02:26:00.748Z,66.49
2023-03-01T02:27:00.744Z,58.83
2023-03-01T02:28:00.732Z,69.64
2023-03-01T02:29:00.747Z,65.99
2023-03-01T02:30:00.729Z,59.24
2023-03-01T02:31:00.769Z,65.96
2023-03-01T02:32:00.739Z,59.37
2023-03-01T02:33:00.656Z,50.33
2023-03-01T02:34:00.665Z,60.24
2023-03-01T02:35:00.660Z,56.04
2023-03-01T02:36:00.676Z,61.60
2023-03-01T02:37:00.618Z,64.49
2023-03-01T02:38:00.599Z,55.85
2023-03-01T02:39:00.582Z,65.83
2023-03-01T02:40:00.693Z,68.59
2023-03-01T02:41:00.664Z,58.11
2023-03-01T02:42:00.544Z,56.81
2023-03-01T02:43:00.563Z,58.93
2023-03-01T02:44:00.704Z,61.70
2023-03-01T02:45:00.575Z,65.91
2023-03-01T02:46:00.713Z,63.51
2023-03-01T02:47:00.527Z,54.26
2023-03-01T02:48:00.534Z,62.94
2023-03-01T02:49:01.419Z,61.42
2023-03-01T02:50:01.453Z,61.86
2023-03-01T02:51:00.503Z,58.84
2023-03-01T02:52:00.471Z,69.08
2023-03-01T02:53:00.446Z,56.79
2023-03-01T02:54:00.441Z,52.57
2023-03-01T02:55:00.459Z,61.93
2023-03-01T02:56:00.977Z,65.91
2023-03-01T02:57:00.399Z,66.30
2023-03-01T02:58:00.443Z,64.71
2023-03-01T02:59:00.392Z,61.65
2023-03-01T03:00:00.394Z,64.64
2023-03-01T03:01:00.378Z,68.72
2023-03-01T03:02:00.389Z,58.56
2023-03-01T03:03:00.418Z,63.92
2023-03-01T03:04:00.397Z,63.53
2023-03-01T03:05:00.342Z,59.57
2023-03-01T03:06:00.362Z,63.08
2023-03-01T03:07:00.337Z,61.56
2023-03-01T03:08:00.361Z,65.92
2023-03-01T03:09:00.289Z,59.17
2023-03-01T03:10:00.297Z,60.79
2023-03-01T03:11:00.310Z,68.82
2023-03-01T03:12:00.315Z,64.05
2023-03-01T03:13:00.330Z,63.52
2023-03-01T03:14:00.208Z,60.84
2023-03-01T03:15:00.262Z,55.28
2023-03-01T03:16:00.230Z,60.38
2023-03-01T03:17:00.254Z,62.21
2023-03-01T03:18:00.193Z,64.40
2023-03-01T03:19:00.198Z,63.24
2023-03-01T03:20:00.173Z,50.63
2023-03-01T03:21:00.138Z,63.48
2023-03-01T03:22:00.148Z,59.71
2023-03-01T03:23:00.175Z,60.92
2023-03-01T03:24:00.150Z,61.85
2023-03-01T03:25:00.143Z,57.47
2023-03-01T03:26:00.197Z,61.46
2023-03-01T03:27:00.111Z,70.37
2023-03-01T03:28:00.143Z,62.11
2023-03-01T03:29:00.117Z,61.29
2023-03-01T03:30:00.117Z,68.13
2023-03-01T03:31:00.064Z,59.35
2023-03-01T03:32:00.121Z,58.74
2023-03-01T03:33:00.022Z,61.05
2023-03-01T03:34:00.089Z,63.15
2023-03-01T03:35:00.012Z,68.43
2023-03-01T03:36:00.002Z,68.10
2023-03-01T03:37:00.005Z,67.78
2023-03-01T03:37:59.978Z,69.48
2023-03-01T03:39:00.000Z,65.12
2023-03-01T03:40:00.023Z,67.69
2023-03-01T03:40:59.923Z,66.53
2023-03-01T03:41:59.950Z,63.89
2023-03-01T03:42:59.920Z,63.31
2023-03-01T03:43:59.893Z,68.00
2023-03-01T03:44:59.913Z,63.68
2023-03-01T03:45:59.909Z,64.13
2023-03-01T03:46:59.877Z,67.85
2023-03-01T03:47:59.881Z,67.87
2023-03-01T03:48:59.871Z,68.49
2023-03-01T03:49:59.870Z,68.47
2023-03-01T03:50:59.866Z,66.83
2023-03-01T03:51:59.802Z,69.05
2023-03-01T03:52:59.822Z,71.29
2023-03-01T03:53:59.842Z,69.91
2023-03-01T03:54:59.788Z,67.58
2023-03-01T03:55:59.904Z,68.87
2023-03-01T03:56:59.796Z,69.03
2023-03-01T03:57:59.788Z,64.78
2023-03-01T03:58:59.792Z,63.71
2023-03-01T03:59:59.736Z,67.32
2023-03-01T04:00:59.908Z,68.33
2023-03-01T04:01:59.719Z,70.82
2023-03-01T04:02:59.836Z,69.03
2023-03-01T04:03:59.738Z,64.74
2023-03-01T04:04:59.719Z,63.87
2023-03-01T04:05:59.666Z,67.90
2023-03-01T04:06:59.664Z,67.69
2023-03-01T04:07:59.662Z,69.03
2023-03-01T04:09:00.458Z,67.95
2023-03-01T04:09:59.646Z,71.31
2023-03-01T04:10:59.625Z,70.35
2023-03-01T04:11:59.606Z,69.72
2023-03-01T04:12:59.649Z,71.71
2023-03-01T04:13:59.735Z,69.29
2023-03-01T04:14:59.607Z,65.73
2023-03-01T04:15:59.595Z,70.93
2023-03-01T04:16:59.609Z,64.58
2023-03-01T04:17:59.570Z,69.38
2023-03-01T04:18:59.550Z,74.55
2023-03-01T04:19:59.527Z,70.33
2023-03-01T04:20:59.546Z,69.58
2023-03-01T04:21:59.551Z,71.76
2023-03-01T04:22:59.513Z,72.81
2023-03-01T04:23:59.529Z,73.65
2023-03-01T04:24:59.475Z,73.19
2023-03-01T04:25:59.487Z,74.52
2023-03-01T04:26:59.564Z,72.93
2023-03-01T04:27:59.470Z,70.53
2023-03-01T04:28:59.456Z,70.48
2023-03-01T04:29:59.443Z,73.32
2023-03-01T04:30:59.437Z,73.61
2023-03-01T04:31:59.557Z,72.29
2023-03-01T04:32:59.396Z,71.88
2023-03-01T04:33:59.408Z,73.20
2023-03-01T04:34:59.383Z,73.87
2023-03-01T04:35:59.514Z,72.13
2023-03-01T04:36:59.404Z,75.95
2023-03-01T04:37:59.388Z,75.08
2023-03-01T04:38:59.348Z,75.09
2023-03-01T04:39:59.367Z,74.67
2023-03-01T04:40:59.313Z,72.51
2023-03-01T04:41:59.341Z,74.41
2023-03-01T04:42:59.294Z,73.56
2023-03-01T04:43:59.342Z,73.43
2023-03-01T04:44:59.327Z,74.96
2023-03-01T04:45:59.267Z,73.63
2023-03-01T04:46:59.235Z,71.67
2023-03-01T04:47:59.262Z,73.68
2023-03-01T04:48:59.230Z,73.48
2023-03-01T04:49:59.219Z,73.54
2023-03-01T04:50:59.168Z,74.84
2023-03-01T04:51:59.239Z,73.58
2023-03-01T04:52:59.200Z,73.99
2023-03-01T04:53:59.203Z,73.97
2023-03-01T04:54:59.159Z,72.48
2023-03-01T04:55:59.168Z,75.14
2023-03-01T04:56:59.158Z,74.21
2023-03-01T04:57:59.119Z,74.32
2023-03-01T04:58:59.114Z,74.15
2023-03-01T04:59:59.100Z,72.53
2023-03-01T05:00:59.081Z,72.62
2023-03-01T05:01:59.079Z,73.30
2023-03-01T05:02:59.162Z,73.95
2023-03-01T05:03:59.087Z,73.56
2023-03-01T05:04:59.087Z,74.87
2023-03-01T05:05:59.090Z,72.75
2023-03-01T05:06:58.998Z,74.57
2023-03-01T05:07:59.097Z,72.91
2023-03-01T05:08:59.016Z,74.80
2023-03-01T05:09:59.024Z,75.35
2023-03-01T05:10:59.010Z,72.91
2023-03-01T05:11:58.987Z,75.05
2023-03-01T05:12:58.952Z,74.20
2023-03-01T05:13:59.001Z,74.62
2023-03-01T05:14:59.008Z,74.24
2023-03-01T05:15:59.087Z,73.93
2023-03-01T05:16:59.035Z,74.82
2023-03-01T05:17:58.972Z,77.22
2023-03-01T05:18:58.908Z,75.00
2023-03-01T05:19:58.863Z,75.73
2023-03-01T05:20:58.890Z,77.01
2023-03-01T05:21:59.774Z,75.62
2023-03-01T05:23:00.440Z,74.84
2023-03-01T05:23:58.836Z,75.98
2023-03-01T05:24:58.826Z,76.95
2023-03-01T05:25:58.826Z,76.50
2023-03-01T05:26:58.781Z,77.10
2023-03-01T05:27:58.860Z,74.84
2023-03-01T05:28:58.850Z,75.23
2023-03-01T05:29:58.839Z,75.51
2023-03-01T05:30:58.780Z,73.47
2023-03-01T05:31:58.784Z,73.67
2023-03-01T05:32:58.755Z,76.09
2023-03-01T05:33:58.743Z,74.49
2023-03-01T05:34:58.732Z,77.18
2023-03-01T05:35:58.778Z,75.44
2023-03-01T05:36:58.757Z,77.76
2023-03-01T05:37:58.742Z,77.83
2023-03-01T05:38:58.730Z,77.08
2023-03-01T05:39:58.720Z,76.39
2023-03-01T05:40:58.627Z,77.84
2023-03-01T05:41:58.638Z,77.03
2023-03-01T05:42:58.635Z,78.78
2023-03-01T05:43:58.655Z,77.64
2023-03-01T05:44:58.654Z,77.34
2023-03-01T05:45:59.329Z,76.60
2023-03-01T05:46:58.586Z,77.17
2023-03-01T05:47:58.564Z,78.12
2023-03-01T05:48:58.580Z,78.18
2023-03-01T05:49:59.534Z,76.39
2023-03-01T05:50:58.548Z,77.54
2023-03-01T05:51:58.778Z,77.33
2023-03-01T05:52:58.567Z,76.96
2023-03-01T05:53:58.549Z,76.62
2023-03-01T05:54:58.501Z,76.28
2023-03-01T05:55:58.447Z,74.85
2023-03-01T05:56:58.569Z,75.67
2023-03-01T05:57:59.472Z,77.36
2023-03-01T05:58:58.482Z,76.14
2023-03-01T05:59:58.470Z,75.79
2023-03-01T06:00:58.408Z,75.28
2023-03-01T06:01:58.469Z,76.62
2023-03-01T06:02:58.407Z,76.59
2023-03-01T06:03:58.387Z,76.50
2023-03-01T06:04:58.472Z,77.17
2023-03-01T06:05:58.405Z,76.47
2023-03-01T06:06:58.383Z,76.74
2023-03-01T06:07:58.740Z,75.45
2023-03-01T06:08:58.989Z,76.94
2023-03-01T06:09:58.787Z,76.14
2023-03-01T06:10:59.073Z,77.13
2023-03-01T06:11:58.780Z,76.44
2023-03-01T06:12:58.312Z,76.22
2023-03-01T06:13:58.311Z,77.74
2023-03-01T06:14:58.280Z,75.32
2023-03-01T06:15:58.387Z,75.85
2023-03-01T06:16:58.344Z,77.38
2023-03-01T06:18:00.045Z,75.18
2023-03-01T06:18:59.264Z,77.83
2023-03-01T06:19:58.208Z,75.66
2023-03-01T06:20:58.188Z,76.85
2023-03-01T06:21:59.210Z,76.79
2023-03-01T06:22:58.190Z,75.75
2023-03-01T06:23:58.180Z,76.62
2023-03-01T06:24:58.191Z,76.64
2023-03-01T06:25:58.192Z,76.51
2023-03-01T06:26:58.129Z,75.31
2023-03-01T06:27:58.153Z,78.02
2023-03-01T06:28:58.099Z,77.33
2023-03-01T06:29:58.213Z,76.90
2023-03-01T06:30:58.203Z,76.28
2023-03-01T06:31:58.117Z,77.86
2023-03-01T06:32:58.166Z,74.35
2023-03-01T06:33:58.068Z,77.61
2023-03-01T06:34:58.324Z,75.54
2023-03-01T06:35:58.145Z,77.79
2023-03-01T06:36:58.113Z,76.29
2023-03-01T06:37:58.051Z,75.69
2023-03-01T06:38:58.022Z,77.00
2023-03-01T06:39:58.035Z,77.69
2023-03-01T06:40:58.047Z,75.55
2023-03-01T06:41:58.992Z,76.39
2023-03-01T06:42:58.030Z,76.18
2023-03-01T06:43:58.023Z,76.34
2023-03-01T06:44:58.027Z,75.18
2023-03-01T06:45:57.943Z,76.71
2023-03-01T06:46:58.006Z,74.67
2023-03-01T06:47:57.991Z,76.60
2023-03-01T06:48:57.911Z,74.99
2023-03-01T06:49:57.901Z,76.75
2023-03-01T06:50:57.901Z,77.09
2023-03-01T06:51:57.924Z,77.21
2023-03-01T06:52:57.887Z,76.63
2023-03-01T06:53:58.352Z,75.34
2023-03-01T06:54:57.826Z,73.81
2023-03-01T06:55:57.907Z,73.18
2023-03-01T06:56:57.916Z,74.74
2023-03-01T06:57:57.825Z,74.27
2023-03-01T06:58:57.843Z,74.97
2023-03-01T06:59:57.833Z,75.14
2023-03-01T07:00:57.837Z,74.87
2023-03-01T07:01:57.874Z,74.41
2023-03-01T07:02:57.778Z,73.92
2023-03-01T07:03:57.779Z,74.36
2023-03-01T07:04:58.221Z,72.24
2023-03-01T07:05:57.741Z,75.16
2023-03-01T07:06:57.769Z,72.99
2023-03-01T07:07:57.725Z,73.31
2023-03-01T07:08:57.695Z,73.99
2023-03-01T07:09:57.717Z,73.81
2023-03-01T07:10:57.702Z,73.65
2023-03-01T07:11:57.637Z,75.71
2023-03-01T07:12:57.630Z,73.64
2023-03-01T07:13:57.631Z,72.87
2023-03-01T07:14:57.591Z,75.37
2023-03-01T07:15:57.677Z,74.73
2023-03-01T07:16:57.601Z,73.81
2023-03-01T07:17:57.606Z,73.19
2023-03-01T07:18:59.702Z,75.72
2023-03-01T07:19:57.568Z,74.81
2023-03-01T07:20:57.569Z,75.12
2023-03-01T07:21:57.592Z,73.50
2023-03-01T07:22:57.584Z,75.48
2023-03-01T07:23:57.775Z,74.65
2023-03-01T07:24:57.512Z,74.84
2023-03-01T07:25:57.542Z,74.46
2023-03-01T07:26:57.555Z,73.14
2023-03-01T07:27:57.474Z,75.07
2023-03-01T07:28:57.457Z,73.21
2023-03-01T07:29:57.489Z,75.19
2023-03-01T07:30:57.504Z,75.60
2023-03-01T07:31:57.493Z,76.33
2023-03-01T07:32:57.555Z,75.37
2023-03-01T07:33:57.445Z,74.31
2023-03-01T07:34:57.368Z,74.12
2023-03-01T07:35:57.456Z,75.61
2023-03-01T07:36:57.433Z,72.63
2023-03-01T07:37:57.383Z,75.01
2023-03-01T07:38:57.346Z,73.43
2023-03-01T07:39:57.329Z,72.08
2023-03-01T07:40:57.313Z,71.63
2023-03-01T07:41:57.370Z,74.82
2023-03-01T07:42:57.354Z,74.94
2023-03-01T07:43:57.316Z,73.16
2023-03-01T07:44:57.274Z,73.56
2023-03-01T07:45:57.322Z,75.05
2023-03-01T07:46:57.284Z,73.56
2023-03-01T07:47:57.285Z,74.77
2023-03-01T07:48:57.233Z,74.52
2023-03-01T07:49:57.207Z,75.03
2023-03-01T07:50:57.216Z,73.52
2023-03-01T07:51:57.214Z,75.98
2023-03-01T07:52:57.258Z,70.64
2023-03-01T07:53:57.205Z,73.64
2023-03-01T07:54:57.176Z,71.89
2023-03-01T07:55:57.142Z,72.36
2023-03-01T07:56:57.135Z,72.44
2023-03-01T07:57:57.135Z,72.18
2023-03-01T07:58:57.101Z,73.14
2023-03-01T07:59:57.125Z,74.42
2023-03-01T08:00:57.094Z,75.76
2023-03-01T08:01:57.092Z,73.87
2023-03-01T08:02:57.087Z,72.76
2023-03-01T08:03:57.080Z,72.67
2023-03-01T08:04:57.045Z,69.51
2023-03-01T08:05:57.048Z,72.01
2023-03-01T08:06:57.004Z,75.74
2023-03-01T08:07:57.002Z,74.06
2023-03-01T08:08:57.014Z,74.49
2023-03-01T08:09:56.970Z,72.79
2023-03-01T08:10:56.999Z,71.52
2023-03-01T08:11:57.037Z,72.71
2023-03-01T08:12:57.203Z,73.35
2023-03-01T08:13:56.938Z,74.87
2023-03-01T08:14:56.981Z,72.32
2023-03-01T08:15:56.928Z,73.34
2023-03-01T08:16:57.011Z,75.26
2023-03-01T08:17:56.933Z,72.58
2023-03-01T08:18:56.908Z,71.89
2023-03-01T08:19:56.858Z,71.70
2023-03-01T08:20:56.850Z,70.39
2023-03-01T08:21:56.859Z,71.99
2023-03-01T08:22:56.872Z,69.84
2023-03-01T08:23:56.843Z,71.23
2023-03-01T08:24:56.848Z,72.78
2023-03-01T08:25:56.822Z,72.22
2023-03-01T08:26:56.798Z,71.97
2023-03-01T08:27:56.845Z,70.54
2023-03-01T08:28:56.769Z,70.50
2023-03-01T08:29:56.789Z,74.19
2023-03-01T08:30:56.758Z,71.51
2023-03-01T08:31:56.867Z,73.49
2023-03-01T08:32:56.830Z,74.36
2023-03-01T08:33:56.697Z,73.46
2023-03-01T08:34:56.713Z,71.67
2023-03-01T08:35:56.734Z,72.25
2023-03-01T08:36:56.738Z,73.60
2023-03-01T08:37:56.653Z,72.78
2023-03-01T08:38:56.681Z,73.23
2023-03-01T08:39:56.672Z,75.69
2023-03-01T08:40:56.648Z,72.93
2023-03-01T08:41:56.642Z,74.97
2023-03-01T08:42:56.663Z,71.14
2023-03-01T08:43:56.601Z,75.00
2023-03-01T08:44:56.637Z,74.39
2023-03-01T08:45:56.603Z,74.46
2023-03-01T08:46:56.614Z,74.47
2023-03-01T08:47:56.570Z,71.88
2023-03-01T08:48:56.568Z,73.06
2023-03-01T08:49:56.516Z,72.64
2023-03-01T08:50:56.532Z,71.55
2023-03-01T08:51:56.544Z,73.40
2023-03-01T08:52:57.533Z,71.75
2023-03-01T08:53:56.521Z,72.23
2023-03-01T08:54:56.463Z,72.27
2023-03-01T08:55:56.465Z,74.31
2023-03-01T08:56:56.466Z,70.75
2023-03-01T08:57:56.465Z,71.45
2023-03-01T08:58:56.453Z,72.76
2023-03-01T08:59:56.451Z,73.26
2023-03-01T09:00:56.439Z,72.69
2023-03-01T09:01:56.441Z,72.45
2023-03-01T09:02:56.410Z,72.88
2023-03-01T09:03:56.447Z,72.34
2023-03-01T09:04:56.470Z,72.24
2023-03-01T09:05:56.449Z,70.67
2023-03-01T09:06:56.478Z,71.16
2023-03-01T09:07:56.410Z,72.80
2023-03-01T09:08:56.437Z,73.29
2023-03-01T09:09:56.359Z,70.83
2023-03-01T09:10:56.384Z,72.17
2023-03-01T09:11:56.359Z,73.39
2023-03-01T09:12:56.368Z,72.23
2023-03-01T09:13:56.701Z,71.23
2023-03-01T09:14:56.644Z,72.71
2023-03-01T09:15:56.678Z,71.65
2023-03-01T09:16:56.551Z,74.83
2023-03-01T09:17:56.268Z,72.57
2023-03-01T09:18:56.264Z,68.87
2023-03-01T09:19:56.450Z,73.44
2023-03-01T09:20:56.232Z,73.84
2023-03-01T09:21:56.198Z,73.68
2023-03-01T09:22:56.261Z,74.78
2023-03-01T09:23:56.218Z,71.57
2023-03-01T09:24:56.240Z,74.00
2023-03-01T09:25:56.226Z,72.48
2023-03-01T09:26:56.132Z,72.03
2023-03-01T09:27:56.912Z,69.59
2023-03-01T09:28:56.158Z,71.02
2023-03-01T09:29:56.138Z,71.21
2023-03-01T09:30:56.263Z,72.53
2023-03-01T09:31:56.380Z,72.35
2023-03-01T09:32:56.082Z,71.93
2023-03-01T09:33:56.112Z,71.74
2023-03-01T09:34:56.079Z,72.08
2023-03-01T09:35:56.188Z,72.69
2023-03-01T09:36:56.067Z,71.82
2023-03-01T09:37:56.023Z,72.31
2023-03-01T09:38:56.016Z,74.20
2023-03-01T09:39:56.067Z,72.02
2023-03-01T09:40:56.012Z,72.36
2023-03-01T09:41:56.037Z,71.06
2023-03-01T09:42:55.981Z,73.86
2023-03-01T09:43:56.662Z,68.59
2023-03-01T09:44:57.115Z,71.89
2023-03-01T09:45:56.031Z,71.51
2023-03-01T09:46:55.968Z,73.43
2023-03-01T09:47:55.976Z,73.04
2023-03-01T09:48:56.095Z,73.32
2023-03-01T09:49:55.956Z,71.39
2023-03-01T09:50:55.952Z,70.43
2023-03-01T09:51:55.862Z,72.08
2023-03-01T09:52:55.852Z,72.29
2023-03-01T09:53:55.916Z,71.32
2023-03-01T09:54:55.844Z,73.18
2023-03-01T09:55:55.829Z,71.61
2023-03-01T09:56:55.852Z,73.26
2023-03-01T09:57:55.896Z,71.63
2023-03-01T09:58:55.798Z,72.95
2023-03-01T09:59:55.844Z,72.93
2023-03-01T10:00:55.802Z,75.63
2023-03-01T10:01:55.738Z,73.40
2023-03-01T10:02:55.970Z,73.22
2023-03-01T10:03:55.770Z,72.76
2023-03-01T10:04:55.838Z,69.92
2023-03-01T10:05:55.751Z,70.71
2023-03-01T10:06:55.766Z,71.72
2023-03-01T10:07:55.715Z,72.85
2023-03-01T10:08:55.707Z,70.18
2023-03-01T10:09:55.712Z,71.39
2023-03-01T10:10:55.664Z,69.97
2023-03-01T10:11:55.652Z,73.81
2023-03-01T10:12:55.653Z,72.56
2023-03-01T10:13:55.623Z,71.94
2023-03-01T10:14:55.647Z,75.11
2023-03-01T10:15:55.673Z,73.23
2023-03-01T10:16:55.636Z,71.59
2023-03-01T10:17:55.631Z,72.70
2023-03-01T10:18:55.672Z,71.07
2023-03-01T10:19:55.620Z,74.01
2023-03-01T10:20:55.552Z,71.49
2023-03-01T10:21:55.566Z,71.65
2023-03-01T10:22:56.581Z,72.57
2023-03-01T10:23:55.558Z,72.60
2023-03-01T10:24:55.534Z,72.88
2023-03-01T10:25:55.516Z,71.55
2023-03-01T10:26:55.490Z,73.29
2023-03-01T10:27:55.518Z,71.43
2023-03-01T10:28:55.521Z,71.16
2023-03-01T10:29:55.463Z,71.15
2023-03-01T10:30:55.527Z,70.52
2023-03-01T10:31:55.493Z,72.00
2023-03-01T10:32:55.425Z,70.36
2023-03-01T10:33:56.458Z,72.88
2023-03-01T10:34:55.419Z,70.53
2023-03-01T10:35:55.465Z,71.74
2023-03-01T10:36:55.393Z,72.92
2023-03-01T10:37:55.409Z,72.53
2023-03-01T10:38:55.436Z,73.06
2023-03-01T10:39:55.362Z,71.56
2023-03-01T10:40:55.359Z,72.14
2023-03-01T10:41:55.325Z,71.82
2023-03-01T10:42:55.348Z,70.13
2023-03-01T10:43:55.358Z,71.07
2023-03-01T10:44:55.352Z,71.37
2023-03-01T10:45:55.386Z,72.86
2023-03-01T10:46:55.264Z,71.06
2023-03-01T10:47:55.260Z,72.01
2023-03-01T10:48:55.329Z,70.65
2023-03-01T10:49:55.249Z,70.82
2023-03-01T10:50:55.221Z,68.86
2023-03-01T10:51:55.285Z,71.14
2023-03-01T10:52:55.226Z,73.58
2023-03-01T10:53:55.201Z,69.95
2023-03-01T10:54:55.230Z,68.56
2023-03-01T10:55:55.190Z,70.92
2023-03-01T10:56:55.193Z,71.17
2023-03-01T10:57:55.146Z,71.14
2023-03-01T10:58:55.194Z,70.41
2023-03-01T10:59:55.165Z,72.04
2023-03-01T11:00:55.129Z,71.68
2023-03-01T11:01:55.105Z,72.18
2023-03-01T11:02:55.106Z,73.87
2023-03-01T11:03:55.754Z,72.56
2023-03-01T11:04:55.146Z,72.30
2023-03-01T11:05:55.091Z,70.80
2023-03-01T11:06:55.065Z,69.14
2023-03-01T11:07:55.050Z,71.29
2023-03-01T11:08:55.029Z,70.62
2023-03-01T11:09:55.069Z,73.24
2023-03-01T11:10:55.034Z,72.04
2023-03-01T11:11:55.005Z,72.73
2023-03-01T11:12:55.088Z,71.52
2023-03-01T11:13:54.988Z,73.54
2023-03-01T11:14:54.964Z,74.04
2023-03-01T11:15:55.022Z,73.26
2023-03-01T11:16:55.082Z,70.57
2023-03-01T11:18:00.804Z,71.11
2023-03-01T11:18:57.030Z,73.44
2023-03-01T11:20:02.670Z,70.14
2023-03-01T11:20:57.203Z,73.42
2023-03-01T11:21:56.012Z,72.60
2023-03-01T11:22:54.847Z,72.36
2023-03-01T11:23:54.847Z,73.63
2023-03-01T11:25:08.869Z,72.54
2023-03-01T11:25:56.844Z,71.05
2023-03-01T11:26:54.913Z,69.13
2023-03-01T11:27:55.175Z,71.20
2023-03-01T11:28:54.869Z,74.46
2023-03-01T11:29:54.855Z,70.51
2023-03-01T11:31:07.237Z,71.33
2023-03-01T11:31:58.005Z,72.48
2023-03-01T11:32:55.864Z,73.23
2023-03-01T11:33:54.815Z,72.34
2023-03-01T11:34:54.771Z,71.27
2023-03-01T11:35:54.705Z,70.87
2023-03-01T11:36:54.751Z,74.49
2023-03-01T11:37:54.849Z,72.24
2023-03-01T11:38:55.018Z,71.02
2023-03-01T11:39:54.686Z,71.57
2023-03-01T11:40:56.134Z,72.73
2023-03-01T11:41:56.907Z,70.59
2023-03-01T11:42:55.442Z,72.11
2023-03-01T11:43:55.010Z,72.04
2023-03-01T11:44:54.591Z,69.30
2023-03-01T11:45:54.636Z,70.67
2023-03-01T11:46:55.487Z,74.50
2023-03-01T11:47:54.631Z,71.86
2023-03-01T11:48:54.553Z,73.75
2023-03-01T11:49:54.678Z,71.15
2023-03-01T11:50:54.602Z,70.23
2023-03-01T11:51:54.551Z,72.35
2023-03-01T11:52:55.508Z,73.12
2023-03-01T11:53:54.590Z,70.77
2023-03-01T11:54:54.654Z,73.59
2023-03-01T11:55:54.582Z,71.38
2023-03-01T11:56:54.683Z,70.81
2023-03-01T11:57:54.475Z,69.43
2023-03-01T11:58:54.630Z,73.19
2023-03-01T11:59:54.451Z,74.09
2023-03-01T12:00:54.548Z,71.54
2023-03-01T12:01:54.520Z,71.51
2023-03-01T12:02:54.751Z,72.08
2023-03-01T12:03:54.580Z,72.35
2023-03-01T12:04:54.435Z,70.82
2023-03-01T12:05:54.537Z,72.94
2023-03-01T12:06:56.671Z,72.30
2023-03-01T12:07:55.390Z,73.16
2023-03-01T12:08:55.434Z,70.79
2023-03-01T12:09:54.327Z,72.76
2023-03-01T12:10:54.414Z,71.89
2023-03-01T12:11:54.368Z,73.28
2023-03-01T12:12:54.488Z,72.54
2023-03-01T12:13:54.326Z,70.10
2023-03-01T12:14:54.289Z,70.14
2023-03-01T12:15:54.312Z,74.03
2023-03-01T12:16:54.521Z,73.10
2023-03-01T12:17:54.324Z,71.59
2023-03-01T12:18:54.230Z,71.33
2023-03-01T12:19:54.234Z,72.08
2023-03-01T12:20:54.223Z,71.97
2023-03-01T12:21:54.432Z,74.14
2023-03-01T12:22:54.331Z,70.76
2023-03-01T12:23:54.188Z,72.82
2023-03-01T12:24:54.211Z,70.24
2023-03-01T12:25:54.178Z,73.10
2023-03-01T12:26:54.256Z,72.86
2023-03-01T12:27:54.177Z,73.10
2023-03-01T12:28:54.282Z,71.87
2023-03-01T12:29:54.112Z,72.45
2023-03-01T12:30:54.296Z,72.88
2023-03-01T12:31:54.398Z,72.66
2023-03-01T12:32:54.247Z,72.82
2023-03-01T12:33:54.277Z,71.84
2023-03-01T12:34:54.069Z,73.20
2023-03-01T12:35:54.123Z,75.05
2023-03-01T12:36:54.057Z,74.59
2023-03-01T12:37:54.040Z,74.86
2023-03-01T12:38:55.029Z,73.84
2023-03-01T12:39:54.026Z,73.60
2023-03-01T12:40:54.003Z,73.71
2023-03-01T12:41:53.983Z,72.98
2023-03-01T12:42:54.005Z,75.39
2023-03-01T12:43:54.036Z,71.29
2023-03-01T12:44:54.054Z,73.54
2023-03-01T12:45:54.032Z,74.05
2023-03-01T12:46:54.069Z,72.62
2023-03-01T12:47:53.948Z,73.69
2023-03-01T12:48:53.935Z,72.99
2023-03-01T12:49:53.945Z,74.72
2023-03-01T12:50:54.886Z,74.03
2023-03-01T12:51:53.902Z,72.78